Time;durP1;ratioP1;P1;durP2;ratioP2;P2;SDS_P1;SDS_P2;PMS_P1;PMS_P2;Temp;Humidity;BMP_temperature;BMP_pressure;BME280_temperature;BME280_humidity;BME280_pressure;Samples;Min_cycle;Max_cycle;Signal;HPM_P1;HPM_P2
2023/07/10 00:02:40;;;;;;;5.70;4.90;;;21.40;94.50;;;22.33;57.04;98101.75;10355530;28;20325;-67
2023/07/10 00:07:44;;;;;;;6.95;5.25;;;21.40;94.50;;;22.31;57.78;98107.78;10353617;28;20229;-67
2023/07/10 00:12:47;;;;;;;6.55;5.82;;;21.30;94.90;;;22.16;58.59;98105.81;10352260;28;20222;-67
2023/07/10 00:17:53;;;;;;;6.18;5.38;;;21.20;95.40;;;22.12;58.46;98106.59;10357514;28;20222;-67
2023/07/10 00:22:56;;;;;;;6.20;5.60;;;21.10;95.50;;;21.97;59.17;98096.81;10348133;28;20257;-67
2023/07/10 00:27:59;;;;;;;5.95;5.07;;;21.00;95.90;;;21.93;58.77;98095.91;10348182;28;20226;-67
2023/07/10 00:33:10;;;;;;;6.00;5.40;;;21.00;95.80;;;22.00;59.54;98096.88;10356496;28;20227;-67
2023/07/10 00:38:18;;;;;;;6.13;5.50;;;21.00;96.40;;;21.89;60.15;98098.41;10354856;28;20714;-67
2023/07/10 00:43:32;;;;;;;6.00;5.40;;;20.90;96.70;;;21.83;60.68;98096.59;10366463;22;20234;-67
2023/07/10 00:48:42;;;;;;;7.40;5.65;;;20.80;97.20;;;21.77;60.91;98088.69;10353520;28;20233;-66
2023/07/10 00:53:47;;;;;;;6.00;4.82;;;20.80;97.50;;;21.75;60.92;98083.47;10351729;28;20255;-66
2023/07/10 00:58:51;;;;;;;5.28;4.78;;;20.80;97.70;;;21.73;61.39;98082.56;10352598;28;20238;-66
2023/07/10 01:03:57;;;;;;;6.13;5.50;;;20.70;98.00;;;21.61;61.97;98081.50;10355804;28;20237;-66
2023/07/10 01:09:04;;;;;;;5.50;5.00;;;20.60;98.50;;;21.53;62.57;98092.63;10358022;28;20218;-67
2023/07/10 01:14:10;;;;;;;6.82;5.50;;;20.40;99.00;;;21.41;63.26;98104.56;10356530;28;20316;-66
2023/07/10 01:19:21;;;;;;;6.93;5.97;;;20.30;99.80;;;21.24;64.16;98125.00;10356169;28;20238;-66
2023/07/10 01:24:26;;;;;;;7.88;6.28;;;20.20;99.90;;;21.24;64.76;98157.09;10360163;28;20819;-67
2023/07/10 01:29:35;;;;;;;6.72;5.88;;;20.20;99.90;;;21.34;64.60;98163.34;10354873;28;20226;-66
2023/07/10 01:34:42;;;;;;;6.05;5.38;;;20.20;99.90;;;21.16;64.80;98187.25;10355328;28;20223;-66
2023/07/10 01:39:51;;;;;;;5.85;5.07;;;20.10;99.90;;;21.05;65.10;98184.44;10353290;28;20237;-65
2023/07/10 01:44:54;;;;;;;6.28;5.70;;;20.00;99.90;;;20.86;66.10;98177.97;10358193;28;20256;-66
2023/07/10 01:49:59;;;;;;;5.50;4.97;;;19.90;99.90;;;20.89;66.22;98171.97;10352106;28;20237;-66
2023/07/10 01:55:05;;;;;;;6.10;5.47;;;20.00;99.90;;;20.92;66.46;98172.91;10346441;28;20235;-66
2023/07/10 02:00:12;;;;;;;6.15;5.57;;;20.00;99.90;;;20.90;66.23;98165.94;10352904;28;20242;-66
2023/07/10 02:05:15;;;;;;;5.80;5.30;;;19.90;99.90;;;20.77;66.58;98156.09;10357013;28;20254;-66
2023/07/10 02:10:20;;;;;;;6.40;5.55;;;19.80;99.90;;;20.77;66.75;98146.59;10346434;28;20227;-66
2023/07/10 02:15:34;;;;;;;6.13;5.38;;;19.90;99.90;;;20.79;66.40;98150.09;10350303;28;20253;-67
2023/07/10 02:20:39;;;;;;;5.50;4.95;;;19.90;99.90;;;20.80;66.63;98136.25;10352683;28;20974;-67
2023/07/10 02:25:43;;;;;;;6.18;5.57;;;19.80;99.90;;;20.71;67.77;98125.66;10349321;28;20235;-66
2023/07/10 02:30:46;;;;;;;6.35;5.57;;;19.80;99.90;;;20.65;67.91;98126.41;10355490;28;20229;-66
2023/07/10 02:35:50;;;;;;;5.55;5.00;;;19.70;99.90;;;20.64;68.04;98114.28;10351289;28;20813;-66
2023/07/10 02:40:55;;;;;;;6.60;5.93;;;19.70;99.90;;;20.74;68.38;98104.94;10348249;28;20227;-67
2023/07/10 02:45:59;;;;;;;6.22;5.63;;;19.80;99.90;;;20.69;68.72;98107.47;10352308;28;20231;-66
2023/07/10 02:51:03;;;;;;;5.88;4.95;;;19.80;99.90;;;20.68;68.43;98107.41;10351539;28;20224;-66
2023/07/10 02:56:07;;;;;;;6.30;5.07;;;19.80;99.90;;;20.70;67.59;98100.53;10352185;28;20334;-66
2023/07/10 03:01:10;;;;;;;6.00;5.35;;;19.60;99.90;;;20.58;68.04;98129.75;10352075;28;20238;-67
2023/07/10 03:06:14;;;;;;;6.70;5.50;;;19.60;99.90;;;20.59;68.30;98148.78;10358393;28;20230;-65
2023/07/10 03:11:19;;;;;;;6.18;5.57;;;19.60;99.90;;;20.57;68.21;98169.53;10351545;28;20230;-66
2023/07/10 03:16:22;;;;;;;6.32;5.72;;;19.60;99.90;;;20.67;67.98;98171.50;10349520;28;20265;-66
2023/07/10 03:21:25;;;;;;;7.05;6.35;;;19.70;99.90;;;20.74;68.62;98171.63;10352801;28;20281;-66
2023/07/10 03:26:30;;;;;;;6.95;6.25;;;19.80;99.90;;;20.63;69.00;98195.66;10348822;28;20258;-66
2023/07/10 03:31:33;;;;;;;6.82;5.70;;;19.70;99.90;;;20.67;69.55;98207.00;10350450;28;20313;-66
2023/07/10 03:36:37;;;;;;;6.80;5.82;;;19.80;99.90;;;20.75;69.46;98214.97;10352939;28;20528;-66
2023/07/10 03:41:41;;;;;;;8.25;5.85;;;19.90;99.90;;;20.87;69.51;98197.03;10343017;28;20230;-66
2023/07/10 03:46:44;;;;;;;6.40;5.80;;;20.00;99.90;;;20.96;68.37;98214.56;10349656;28;20226;-66
2023/07/10 03:51:47;;;;;;;6.10;5.38;;;20.00;99.90;;;21.00;68.25;98205.97;10357177;28;20744;-66
2023/07/10 03:56:52;;;;;;;6.47;5.88;;;20.00;99.90;;;20.95;68.59;98199.81;10347774;28;21073;-66
2023/07/10 04:01:55;;;;;;;5.72;5.15;;;20.00;99.90;;;21.03;67.72;98203.44;10343330;28;20239;-66
2023/07/10 04:06:58;;;;;;;6.00;5.40;;;20.20;99.90;;;21.11;66.90;98215.75;10347609;28;20231;-66
2023/07/10 04:12:03;;;;;;;6.18;5.50;;;20.20;99.90;;;21.12;67.69;98225.31;10349395;28;20646;-66
2023/07/10 04:17:07;;;;;;;5.97;5.38;;;20.20;99.90;;;21.01;67.05;98242.41;10355429;28;20293;-65
2023/07/10 04:22:10;;;;;;;6.35;5.75;;;20.10;99.90;;;21.06;67.29;98248.59;10340275;28;20241;-67
2023/07/10 04:27:15;;;;;;;7.95;6.22;;;20.20;99.90;;;21.14;66.81;98251.31;10348281;28;20230;-67
2023/07/10 04:32:18;;;;;;;6.90;5.97;;;20.30;99.90;;;21.30;65.93;98248.22;10355462;28;20260;-67
2023/07/10 04:37:21;;;;;;;6.88;6.18;;;20.40;99.90;;;21.45;65.99;98255.47;10354366;28;20324;-66
2023/07/10 04:42:26;;;;;;;7.13;5.97;;;20.50;99.90;;;21.42;66.62;98251.94;10358591;28;20701;-66
2023/07/10 04:47:29;;;;;;;6.97;6.30;;;20.50;99.90;;;21.47;66.17;98287.63;10360046;28;20236;-65
2023/07/10 04:52:32;;;;;;;6.57;5.93;;;20.50;99.90;;;21.52;66.71;98290.31;10357706;28;20219;-66
2023/07/10 04:57:36;;;;;;;6.90;6.15;;;20.60;99.90;;;21.59;66.95;98298.28;10360198;28;20229;-66
2023/07/10 05:02:40;;;;;;;6.28;5.72;;;20.70;99.90;;;21.74;66.47;98296.81;10343999;28;20254;-67
2023/07/10 05:07:43;;;;;;;6.47;5.88;;;20.80;99.90;;;21.77;65.61;98305.56;10353332;28;20254;-68
2023/07/10 05:12:48;;;;;;;6.93;5.93;;;20.80;99.90;;;21.58;66.31;98306.94;10345257;28;20226;-66
2023/07/10 05:17:51;;;;;;;7.43;6.72;;;20.60;99.90;;;21.58;66.69;98306.94;10356639;28;20691;-68
2023/07/10 05:22:54;;;;;;;7.32;6.60;;;20.70;99.90;;;21.77;66.72;98297.75;10354115;28;20357;-66
2023/07/10 05:27:58;;;;;;;6.47;5.88;;;20.90;99.90;;;22.04;66.12;98287.00;10356576;28;20697;-66
2023/07/10 05:33:03;;;;;;;7.13;6.43;;;21.30;99.90;;;22.63;64.22;98308.88;10351511;28;20310;-67
2023/07/10 05:38:08;;;;;;;8.45;7.07;;;21.80;99.90;;;23.14;62.22;98315.78;10348676;28;20223;-67
2023/07/10 05:43:12;;;;;;;6.97;6.28;;;22.50;99.90;;;23.70;60.87;98341.81;10355168;28;20218;-67
2023/07/10 05:48:16;;;;;;;8.23;6.55;;;22.90;99.50;;;24.44;58.79;98311.31;10352560;28;20272;-67
2023/07/10 05:53:21;;;;;;;6.88;6.00;;;23.50;98.60;;;25.68;55.79;98324.41;10358580;28;20232;-67
2023/07/10 05:58:28;;;;;;;6.60;5.97;;;24.80;97.00;;;26.86;50.93;98338.66;10348052;28;20234;-66
2023/07/10 06:03:33;;;;;;;6.60;5.90;;;25.60;93.60;;;27.58;48.67;98340.31;10354877;28;20246;-67
2023/07/10 06:08:38;;;;;;;6.78;6.03;;;26.00;92.50;;;28.33;47.76;98337.41;10353710;28;20276;-67
2023/07/10 06:13:42;;;;;;;6.70;6.00;;;26.80;91.80;;;29.40;44.76;98346.19;10354437;28;20309;-68
2023/07/10 06:18:46;;;;;;;7.00;6.25;;;27.80;90.10;;;30.09;42.37;98372.63;10350801;28;20636;-67
2023/07/10 06:23:49;;;;;;;6.78;6.13;;;28.20;85.20;;;30.87;41.29;98367.19;10358738;28;20236;-67
2023/07/10 06:28:53;;;;;;;7.15;6.13;;;28.60;85.00;;;31.47;39.64;98366.16;10361976;28;20218;-67
2023/07/10 06:33:56;;;;;;;8.52;6.70;;;28.90;82.60;;;31.60;39.58;98335.97;10350337;28;20231;-67
2023/07/10 06:38:59;;;;;;;6.82;6.15;;;29.40;82.30;;;31.94;39.59;98298.28;10348886;28;20232;-67
2023/07/10 06:49:15;;;;;;;7.45;5.63;;;30.50;77.70;;;33.28;37.24;98262.34;10277214;28;20233;-69
2023/07/10 06:54:18;;;;;;;7.63;6.20;;;31.20;77.10;;;34.31;34.66;98291.13;10316532;28;20710;-68
2023/07/10 06:59:22;;;;;;;7.20;6.43;;;31.80;75.10;;;34.54;34.52;98317.84;10322248;28;20723;-68
2023/07/10 07:04:26;;;;;;;7.07;6.25;;;32.30;74.00;;;35.01;33.66;98324.31;10319963;28;20524;-69
2023/07/10 07:09:30;;;;;;;7.68;6.07;;;32.60;72.30;;;35.08;33.30;98328.53;10317971;28;20230;-69
2023/07/10 07:14:33;;;;;;;6.75;6.05;;;32.80;71.90;;;35.17;33.59;98336.16;10320383;28;20232;-68
2023/07/10 07:19:37;;;;;;;8.32;6.47;;;33.00;71.30;;;35.45;33.09;98332.53;10324050;28;20329;-68
2023/07/10 07:24:40;;;;;;;7.38;6.65;;;33.10;71.00;;;35.10;34.22;98356.78;10317987;28;20673;-68
2023/07/10 07:29:44;;;;;;;7.10;6.40;;;32.90;71.70;;;34.93;34.02;98357.31;10307066;28;20243;-68
2023/07/10 07:34:49;;;;;;;7.32;6.63;;;32.60;71.80;;;34.81;34.50;98339.13;10314612;28;20318;-68
2023/07/10 07:39:54;;;;;;;6.22;5.63;;;32.70;71.70;;;35.45;33.53;98322.78;10310512;28;20230;-69
2023/07/10 07:44:58;;;;;;;6.93;6.25;;;33.50;70.10;;;36.12;32.39;98319.47;10324445;28;20241;-69
2023/07/10 07:50:02;;;;;;;6.43;5.68;;;34.00;68.70;;;36.38;31.83;98318.41;10349557;28;20313;-69
2023/07/10 07:55:07;;;;;;;6.57;5.93;;;34.30;68.20;;;35.57;33.25;98322.38;10360034;28;20233;-69
2023/07/10 08:00:14;;;;;;;8.35;5.95;;;33.60;69.60;;;34.86;34.64;98318.59;10346421;28;20229;-69
2023/07/10 08:05:18;;;;;;;6.82;5.82;;;32.80;71.70;;;34.39;35.14;98323.63;10361160;28;20229;-69
2023/07/10 08:10:41;;;;;;;7.43;6.40;;;32.30;73.10;;;34.27;35.97;98326.69;10358722;28;20740;-70
2023/07/10 08:15:45;;;;;;;6.93;5.45;;;32.20;73.50;;;35.25;34.48;98331.47;10354137;28;20232;-68
2023/07/10 08:20:50;;;;;;;7.70;5.60;;;33.10;71.30;;;36.31;32.93;98338.22;10352603;28;20232;-69
2023/07/10 08:25:53;;;;;;;6.57;5.97;;;34.30;69.70;;;36.27;33.02;98323.31;10375906;28;20225;-68
2023/07/10 08:30:56;;;;;;;6.20;5.60;;;34.60;68.20;;;36.42;32.77;98330.66;10370455;28;20234;-69
2023/07/10 08:36:03;;;;;;;6.65;5.97;;;34.60;68.00;;;36.24;33.19;98324.28;10365133;28;20652;-69
2023/07/10 08:41:20;;;;;;;6.95;6.22;;;34.60;68.10;;;36.00;33.40;98335.84;10369252;28;20232;-69
2023/07/10 08:46:26;;;;;;;7.95;7.15;;;34.40;68.50;;;36.19;33.06;98320.94;10360380;28;20932;-69
2023/07/10 08:51:42;;;;;;;7.65;6.80;;;34.90;67.30;;;36.05;33.24;98333.91;10362228;28;20226;-69
2023/07/10 08:57:03;;;;;;;7.32;6.45;;;34.90;67.30;;;35.50;34.20;98327.94;10357894;28;20230;-68
2023/07/10 09:02:24;;;;;;;7.80;6.47;;;34.50;68.40;;;35.87;33.52;98336.31;10363391;28;20279;-69
2023/07/10 09:07:35;;;;;;;8.40;6.75;;;34.70;67.20;;;35.93;33.58;98339.69;10361933;28;20281;-69
2023/07/10 09:12:41;;;;;;;7.00;6.30;;;34.90;67.30;;;36.08;33.63;98347.09;10366919;28;20222;-68
2023/07/10 09:17:59;;;;;;;6.15;5.38;;;34.90;67.90;;;36.02;34.00;98339.31;10358018;28;20230;-69
2023/07/10 09:23:14;;;;;;;4.93;4.53;;;35.00;67.70;;;35.49;34.57;98347.50;10332660;28;20324;-68
2023/07/10 09:28:17;;;;;;;4.97;4.47;;;34.50;68.30;;;35.40;34.92;98351.34;10352087;28;20604;-68
2023/07/10 09:33:22;;;;;;;5.07;4.57;;;34.30;69.10;;;35.37;35.08;98354.97;10355826;28;20232;-69
2023/07/10 09:38:28;;;;;;;6.60;4.90;;;34.40;69.20;;;35.34;35.14;98354.19;10353998;28;20528;-69
2023/07/10 09:43:31;;;;;;;5.20;4.78;;;34.30;68.90;;;34.80;36.50;98361.31;10356128;28;20698;-69
2023/07/10 09:48:37;;;;;;;5.70;5.07;;;33.70;71.70;;;34.52;37.09;98364.81;10344238;28;20639;-68
2023/07/10 09:53:45;;;;;;;5.88;5.25;;;33.70;71.80;;;34.30;37.55;98363.75;10361011;28;20218;-69
2023/07/10 09:58:49;;;;;;;5.70;5.20;;;33.20;72.80;;;34.04;38.00;98352.13;10358211;28;20272;-69
2023/07/10 10:03:55;;;;;;;7.00;5.32;;;33.00;73.90;;;34.27;38.07;98338.16;10361044;28;20745;-69
2023/07/10 10:09:14;;;;;;;5.70;5.18;;;33.00;74.30;;;34.24;38.22;98340.91;10354742;28;20230;-68
2023/07/10 10:14:38;;;;;;;6.82;5.50;;;32.90;74.80;;;34.28;37.57;98325.75;10359366;28;20627;-69
2023/07/10 10:19:47;;;;;;;6.13;5.47;;;33.30;73.00;;;34.16;38.39;98326.13;10355912;28;20232;-69
2023/07/10 10:24:51;;;;;;;5.53;5.03;;;33.30;73.40;;;33.95;38.39;98333.81;10359583;28;20244;-68
2023/07/10 10:30:14;;;;;;;6.65;5.45;;;33.00;74.30;;;34.01;38.62;98335.41;10359560;28;20237;-67
2023/07/10 10:35:25;;;;;;;5.90;5.40;;;33.10;74.10;;;33.96;39.03;98330.22;10356828;28;20232;-68
2023/07/10 10:40:40;;;;;;;5.90;5.38;;;33.00;74.00;;;33.78;39.58;98325.47;10345866;28;20756;-68
2023/07/10 10:45:51;;;;;;;6.18;5.68;;;33.00;74.80;;;33.96;39.44;98324.06;10358288;28;20232;-68
2023/07/10 10:51:01;;;;;;;6.80;5.78;;;33.00;74.60;;;34.15;39.03;98312.00;10350999;28;20288;-68
2023/07/10 10:56:19;;;;;;;5.07;4.68;;;33.30;74.00;;;34.59;37.81;98312.41;10346254;28;20797;-68
2023/07/10 11:01:44;;;;;;;6.15;5.55;;;33.70;73.30;;;34.95;37.08;98312.97;10344773;28;20304;-68
2023/07/10 11:06:53;;;;;;;6.05;5.53;;;34.00;71.90;;;35.07;36.97;98310.84;10342364;28;20237;-69
2023/07/10 11:11:59;;;;;;;5.85;5.35;;;34.20;71.80;;;34.86;37.00;98313.28;10345632;28;20225;-68
2023/07/10 11:17:03;;;;;;;6.10;5.50;;;33.90;71.90;;;34.85;37.18;98297.38;10360158;28;20320;-68
2023/07/10 11:22:23;;;;;;;6.63;5.82;;;34.00;71.40;;;34.47;37.53;98288.88;10343152;28;20226;-69
2023/07/10 11:27:38;;;;;;;6.40;5.88;;;33.60;72.80;;;34.31;37.94;98273.44;10356574;28;20230;-68
2023/07/10 11:32:58;;;;;;;6.07;5.57;;;33.30;72.70;;;34.29;37.88;98269.97;10349944;28;20258;-68
2023/07/10 11:38:18;;;;;;;6.32;5.70;;;33.30;72.80;;;34.01;38.81;98282.34;10354859;28;20615;-68
2023/07/10 11:44:11;;;;;;;6.53;5.93;;;33.20;73.00;;;33.82;38.36;98289.97;10347006;28;20236;-70
2023/07/10 11:49:19;;;;;;;6.68;6.07;;;33.00;73.00;;;33.99;38.63;98287.69;10353303;28;20234;-68
2023/07/10 11:55:01;;;;;;;6.28;5.68;;;32.90;73.30;;;34.20;37.41;98282.69;10350709;28;20307;-68
2023/07/10 12:00:24;;;;;;;6.78;6.18;;;33.30;72.30;;;33.98;38.21;98280.66;10357511;28;20287;-69
2023/07/10 12:05:36;;;;;;;6.45;5.85;;;33.10;72.50;;;33.93;38.19;98282.56;10341317;28;20595;-68
2023/07/10 12:10:42;;;;;;;6.90;6.28;;;33.10;72.90;;;33.85;38.00;98284.56;10350410;28;20224;-70
2023/07/10 12:15:49;;;;;;;7.03;6.43;;;33.00;72.70;;;33.91;38.37;98272.91;10360409;28;20249;-69
2023/07/10 12:20:54;;;;;;;6.45;5.82;;;32.90;73.30;;;34.16;37.13;98270.41;10354684;28;20312;-70
2023/07/10 12:26:00;;;;;;;5.90;5.40;;;33.30;72.10;;;34.15;39.47;98258.06;10353251;28;20317;-68
2023/07/10 12:31:14;;;;;;;6.68;5.80;;;33.00;75.80;;;33.86;39.50;98257.16;10356968;28;20295;-69
2023/07/10 12:36:26;;;;;;;6.50;5.90;;;32.70;76.10;;;33.92;39.27;98251.66;10359977;28;20236;-69
2023/07/10 12:41:33;;;;;;;6.78;5.70;;;32.80;75.20;;;33.84;39.74;98256.31;10354898;28;20231;-68
2023/07/10 12:46:39;;;;;;;7.03;6.32;;;32.80;75.20;;;33.77;39.53;98253.00;10354408;28;20226;-69
2023/07/10 12:51:47;;;;;;;6.97;6.25;;;32.60;75.60;;;33.68;39.85;98249.72;10355283;28;20238;-69
2023/07/10 12:56:54;;;;;;;7.45;6.57;;;32.50;76.00;;;33.49;40.59;98239.66;10360500;28;20222;-70
2023/07/10 13:02:04;;;;;;;6.38;5.82;;;32.20;77.30;;;33.20;40.73;98238.69;10365133;28;20236;-69
2023/07/10 13:07:16;;;;;;;7.75;6.97;;;32.00;77.80;;;32.99;41.31;98241.94;10345804;28;20291;-68
2023/07/10 13:12:39;;;;;;;7.20;6.60;;;31.80;78.10;;;33.20;41.17;98243.13;10355313;28;20315;-68
2023/07/10 13:17:48;;;;;;;6.88;6.28;;;32.00;78.10;;;33.35;40.18;98231.22;10359381;28;20253;-69
2023/07/10 13:22:56;;;;;;;7.45;6.80;;;32.50;76.50;;;33.20;41.27;98232.53;10363813;28;20796;-70
2023/07/10 13:27:59;;;;;;;6.90;6.25;;;32.20;77.00;;;33.15;40.21;98223.84;10360298;28;20284;-69
2023/07/10 13:33:16;;;;;;;7.28;6.57;;;32.20;76.60;;;33.13;40.26;98221.22;10361478;28;20222;-68
2023/07/10 13:38:19;;;;;;;7.07;6.47;;;32.20;75.70;;;33.03;40.58;98211.81;10359923;28;20230;-68
2023/07/10 13:43:23;;;;;;;6.85;6.15;;;32.00;76.20;;;33.24;39.54;98212.09;10355023;28;20234;-68
2023/07/10 13:48:29;;;;;;;7.10;6.40;;;32.30;75.30;;;33.27;39.99;98207.59;10355517;28;20230;-67
2023/07/10 13:53:32;;;;;;;6.78;6.05;;;32.20;75.50;;;33.47;37.67;98199.03;10353196;28;20678;-68
2023/07/10 13:58:35;;;;;;;7.03;6.38;;;32.40;72.70;;;33.40;38.32;98208.09;10358715;28;20226;-69
2023/07/10 14:03:40;;;;;;;6.65;6.00;;;32.30;72.90;;;33.56;36.86;98200.59;10351366;28;20260;-68
2023/07/10 14:08:43;;;;;;;7.28;6.15;;;32.50;71.40;;;33.29;36.87;98196.94;10355084;28;20233;-70
2023/07/10 14:13:47;;;;;;;7.13;6.53;;;32.20;71.50;;;33.47;37.03;98183.13;10360475;28;20234;-68
2023/07/10 14:18:51;;;;;;;6.35;5.80;;;32.40;70.70;;;33.44;36.18;98191.19;10360147;28;20238;-68
2023/07/10 14:23:55;;;;;;;6.55;5.78;;;32.30;70.40;;;33.35;36.48;98191.47;10346477;28;20227;-68
2023/07/10 14:28:58;;;;;;;6.55;5.95;;;32.20;70.50;;;33.08;38.23;98194.00;10360569;28;20591;-67
2023/07/10 14:34:03;;;;;;;6.40;5.80;;;32.00;73.70;;;33.18;36.79;98182.22;10361699;28;20230;-67
2023/07/10 14:39:08;;;;;;;6.00;5.40;;;32.00;70.30;;;33.27;34.26;98175.78;10357084;28;20226;-66
2023/07/10 14:44:11;;;;;;;5.55;5.15;;;32.10;67.80;;;33.25;34.23;98176.72;10345258;28;20225;-69
2023/07/10 14:49:17;;;;;;;6.22;5.65;;;32.40;66.30;;;33.18;33.01;98166.31;10334730;28;20604;-68
2023/07/10 14:54:20;;;;;;;5.70;5.10;;;32.30;63.90;;;33.48;32.86;98169.00;10346630;28;20333;-68
2023/07/10 14:59:23;;;;;;;5.80;5.30;;;32.70;63.90;;;33.64;32.65;98170.25;10344625;28;20726;-67
2023/07/10 15:04:28;;;;;;;5.90;5.47;;;32.80;63.00;;;33.41;32.54;98162.97;10341615;28;20238;-68
2023/07/10 15:09:31;;;;;;;6.07;5.47;;;32.60;63.30;;;33.24;33.25;98164.41;10351503;28;20728;-67
2023/07/10 15:14:34;;;;;;;5.25;4.85;;;32.40;63.90;;;33.30;33.42;98158.91;10342202;28;20227;-69
2023/07/10 15:19:39;;;;;;;5.75;5.25;;;32.40;63.90;;;32.99;33.16;98165.09;10334656;28;20227;-67
2023/07/10 15:24:44;;;;;;;6.20;5.70;;;32.10;63.30;;;32.92;33.40;98158.22;10335342;28;20234;-68
2023/07/10 15:29:48;;;;;;;5.82;5.32;;;32.00;64.50;;;32.79;33.37;98162.09;10338325;28;20854;-68
2023/07/10 15:34:52;;;;;;;5.95;4.78;;;31.90;63.20;;;32.75;32.77;98154.25;10339096;28;20237;-67
2023/07/10 15:39:55;;;;;;;6.05;5.47;;;31.80;63.20;;;32.88;33.48;98160.09;10340455;28;20624;-67
2023/07/10 15:44:58;;;;;;;5.93;5.30;;;32.00;64.30;;;32.89;33.12;98147.72;10347821;28;20230;-68
2023/07/10 15:50:03;;;;;;;5.65;5.15;;;31.90;63.40;;;33.03;33.06;98150.88;10352744;28;20228;-68
2023/07/10 15:55:18;;;;;;;5.40;4.97;;;31.90;63.10;;;32.79;33.10;98157.69;10358496;28;20225;-67
2023/07/10 16:00:25;;;;;;;5.85;5.10;;;32.00;62.50;;;32.62;32.62;98154.63;10355315;28;20312;-67
2023/07/10 16:05:31;;;;;;;5.50;5.00;;;31.70;62.70;;;32.47;33.42;98150.63;10355532;28;20225;-67
2023/07/10 16:10:38;;;;;;;5.63;5.18;;;31.60;63.20;;;32.66;33.16;98157.16;10351976;28;20312;-67
2023/07/10 16:15:41;;;;;;;5.38;4.97;;;31.60;63.60;;;32.29;33.47;98147.50;10358724;28;20241;-67
2023/07/10 16:20:46;;;;;;;6.15;5.55;;;31.40;63.80;;;32.31;33.48;98158.94;10348390;28;20225;-67
2023/07/10 16:25:49;;;;;;;5.97;5.38;;;31.30;63.90;;;32.08;33.92;98151.56;10350154;28;20234;-68
2023/07/10 16:30:53;;;;;;;6.15;5.45;;;31.20;63.80;;;31.86;33.98;98143.25;10339674;28;20673;-68
2023/07/10 16:35:58;;;;;;;6.10;5.50;;;30.90;64.40;;;31.86;34.70;98145.03;10354505;28;20242;-68
2023/07/10 16:41:01;;;;;;;5.25;4.85;;;30.90;64.70;;;31.77;33.89;98150.53;10352038;28;20295;-68
2023/07/10 16:46:04;;;;;;;5.75;5.30;;;30.80;63.90;;;31.76;34.59;98144.34;10352264;28;20705;-69
2023/07/10 16:51:18;;;;;;;5.93;5.07;;;30.80;65.00;;;31.73;34.10;98147.06;10354541;28;20230;-68
2023/07/10 16:56:23;;;;;;;6.18;5.03;;;30.80;64.40;;;31.51;34.41;98146.72;10358028;28;20288;-68
2023/07/10 17:01:29;;;;;;;6.13;4.93;;;30.60;64.90;;;31.29;34.60;98162.13;10364757;28;20345;-69
2023/07/10 17:06:34;;;;;;;5.93;5.15;;;30.30;64.70;;;31.16;34.78;98156.25;10357447;28;20234;-67
2023/07/10 17:11:38;;;;;;;5.22;4.82;;;30.30;64.90;;;31.28;34.78;98159.50;10356187;28;20604;-67
2023/07/10 17:16:43;;;;;;;5.40;4.90;;;30.30;65.20;;;31.14;34.71;98152.75;10357759;28;20244;-67
2023/07/10 17:21:48;;;;;;;5.60;5.00;;;30.20;65.50;;;31.13;34.98;98151.00;10353767;28;20256;-67
2023/07/10 17:26:51;;;;;;;4.95;4.55;;;30.10;65.70;;;30.97;34.73;98153.09;10352472;28;21037;-67
2023/07/10 17:31:54;;;;;;;5.07;4.68;;;30.00;64.90;;;30.93;35.17;98156.72;10348615;28;20230;-67
2023/07/10 17:36:58;;;;;;;5.07;4.68;;;30.00;65.40;;;30.75;35.45;98159.66;10343186;28;20234;-67
2023/07/10 17:42:02;;;;;;;4.90;4.10;;;29.80;65.50;;;30.60;35.35;98155.56;10343730;28;20720;-67
2023/07/10 17:47:06;;;;;;;4.47;4.18;;;29.60;65.40;;;30.55;34.87;98164.44;10347125;28;20312;-68
2023/07/10 17:52:14;;;;;;;4.65;4.25;;;29.60;65.20;;;30.35;35.07;98165.66;10346526;28;20538;-69
2023/07/10 17:57:19;;;;;;;4.90;4.40;;;29.40;65.30;;;30.14;35.37;98166.00;10353882;28;20308;-68
2023/07/10 18:02:30;;;;;;;4.72;4.32;;;29.20;65.10;;;30.03;35.08;98167.03;10333733;28;20731;-68
2023/07/10 18:07:34;;;;;;;4.38;3.97;;;29.10;65.10;;;30.00;35.56;98167.09;10344478;28;20231;-70
2023/07/10 18:12:38;;;;;;;4.68;4.28;;;29.00;65.60;;;29.78;35.34;98174.47;10344216;28;20717;-68
2023/07/10 18:17:42;;;;;;;4.70;4.30;;;28.80;65.30;;;29.76;35.36;98167.47;10344502;28;20237;-69
2023/07/10 18:22:48;;;;;;;4.57;4.18;;;28.70;65.50;;;29.59;36.25;98181.75;10347048;28;20280;-68
2023/07/10 18:27:51;;;;;;;4.50;4.10;;;28.60;65.80;;;29.42;35.71;98181.97;10348030;28;20273;-69
2023/07/10 18:32:55;;;;;;;4.65;4.25;;;28.40;65.60;;;29.33;36.21;98173.28;10349039;28;20681;-68
2023/07/10 18:38:00;;;;;;;4.68;4.28;;;28.30;66.40;;;29.19;37.17;98187.53;10349908;28;20325;-68
2023/07/10 18:43:04;;;;;;;4.93;4.50;;;28.20;68.10;;;29.04;37.82;98185.06;10339892;28;20234;-68
2023/07/10 18:48:13;;;;;;;4.30;3.90;;;28.10;68.70;;;28.88;38.04;98178.22;10347953;28;20240;-68
2023/07/10 18:53:26;;;;;;;4.13;3.83;;;27.90;68.60;;;28.67;38.25;98177.56;10349515;28;20230;-68
2023/07/10 18:58:31;;;;;;;4.78;4.38;;;27.70;70.20;;;28.51;39.69;98170.72;10334152;28;20241;-68
2023/07/10 19:03:37;;;;;;;5.20;4.80;;;27.50;72.00;;;28.32;39.53;98179.59;10346852;28;20232;-68
2023/07/10 19:08:42;;;;;;;5.07;4.57;;;27.30;71.40;;;28.14;40.55;98189.41;10340898;28;20237;-68
2023/07/10 19:13:46;;;;;;;6.03;4.50;;;27.10;72.50;;;27.91;41.82;98192.19;10342701;28;20716;-67
2023/07/10 19:18:55;;;;;;;4.88;4.50;;;26.80;74.90;;;27.72;41.63;98186.16;10348266;28;20227;-68
2023/07/10 19:23:59;;;;;;;5.32;4.88;;;26.60;74.50;;;27.49;42.40;98188.03;10332816;28;20231;-68
2023/07/10 19:29:02;;;;;;;4.85;4.38;;;26.40;76.00;;;27.20;42.57;98194.28;10335078;28;20716;-68
2023/07/10 19:34:05;;;;;;;4.22;3.88;;;26.10;75.30;;;27.07;43.09;98201.31;10337740;28;20368;-68
2023/07/10 19:39:18;;;;;;;4.85;4.45;;;26.00;77.30;;;26.91;44.64;98205.72;10330834;28;20222;-67
2023/07/10 19:44:27;;;;;;;4.95;4.55;;;25.80;79.40;;;26.62;45.01;98212.78;10332096;28;20724;-68
2023/07/10 19:49:30;;;;;;;5.22;4.75;;;25.50;80.20;;;26.42;44.92;98216.25;10337997;28;20972;-67
2023/07/10 19:54:34;;;;;;;5.15;4.65;;;25.40;79.90;;;26.19;46.07;98218.03;10335409;28;20225;-68
2023/07/10 19:59:37;;;;;;;5.40;5.00;;;25.10;81.90;;;25.96;47.40;98220.63;10336417;28;20236;-68
2023/07/10 20:04:43;;;;;;;5.30;4.82;;;24.90;83.30;;;25.87;48.06;98223.19;10344736;28;20233;-68
2023/07/10 20:09:47;;;;;;;6.70;6.20;;;24.80;83.70;;;25.73;48.01;98228.41;10342732;28;20623;-68
2023/07/10 20:14:51;;;;;;;6.00;5.60;;;24.70;83.60;;;25.66;47.56;98226.63;10337354;28;20230;-68
2023/07/10 20:19:54;;;;;;;6.93;6.35;;;24.60;83.70;;;25.49;48.14;98230.03;10340580;28;20251;-68
2023/07/10 20:25:02;;;;;;;6.70;6.07;;;24.40;84.00;;;25.28;48.73;98228.22;10339576;28;20222;-68
2023/07/10 20:30:07;;;;;;;6.15;5.60;;;24.30;85.30;;;24.92;48.99;98229.78;10336980;28;20695;-68
2023/07/10 20:35:13;;;;;;;5.57;5.07;;;23.90;85.00;;;24.78;48.84;98241.88;10336568;28;20281;-67
2023/07/10 20:40:19;;;;;;;5.85;5.35;;;23.80;85.60;;;24.68;48.92;98232.22;10339560;28;20623;-68
2023/07/10 20:45:22;;;;;;;6.03;5.10;;;23.80;85.60;;;24.76;49.94;98230.53;10340757;28;20389;-68
2023/07/10 20:50:26;;;;;;;5.35;4.85;;;23.70;86.80;;;24.57;50.67;98226.91;10331749;28;20725;-68
2023/07/10 20:55:30;;;;;;;5.75;5.13;;;23.60;87.80;;;24.49;51.76;98231.19;10332852;28;20253;-68
2023/07/10 21:00:34;;;;;;;6.00;5.40;;;23.50;90.00;;;24.36;52.54;98224.09;10338779;28;20264;-67
2023/07/10 21:05:38;;;;;;;5.88;5.38;;;23.30;90.70;;;24.19;52.28;98230.06;10344826;28;20234;-68
2023/07/10 21:10:42;;;;;;;5.82;5.30;;;23.20;90.30;;;24.03;52.93;98225.53;10348862;28;20594;-67
2023/07/10 21:15:47;;;;;;;6.28;5.40;;;23.10;91.00;;;24.06;52.97;98233.41;10353542;28;20698;-67
2023/07/10 21:20:51;;;;;;;5.57;5.07;;;23.00;91.10;;;23.99;53.40;98229.00;10359089;28;20254;-68